createdAt,value
2019-04-11T00:00:36.049Z,2.20
2019-04-11T00:03:05.041Z,2.10
2019-04-11T00:05:34.925Z,2.00
2019-04-11T00:08:03.825Z,2.00
2019-04-11T00:10:33.325Z,1.90
2019-04-11T00:13:14.275Z,1.90
2019-04-11T00:15:32.810Z,1.90
2019-04-11T00:18:02.696Z,1.90
2019-04-11T00:20:31.869Z,1.80
2019-04-11T00:23:01.701Z,1.80
2019-04-11T00:25:31.597Z,1.80
2019-04-11T00:28:01.479Z,1.90
2019-04-11T00:30:30.430Z,1.90
2019-04-11T00:33:00.165Z,1.90
2019-04-11T00:35:28.857Z,1.90
2019-04-11T00:37:57.401Z,1.90
2019-04-11T00:40:26.924Z,1.90
2019-04-11T00:42:55.885Z,1.90
2019-04-11T00:45:24.464Z,1.90
2019-04-11T00:47:53.233Z,1.80
2019-04-11T00:50:21.882Z,1.80
2019-04-11T00:52:50.342Z,1.80
2019-04-11T00:55:19.616Z,1.70
2019-04-11T00:57:49.440Z,1.70
2019-04-11T01:00:18.670Z,1.70
2019-04-11T01:02:47.487Z,1.70
2019-04-11T01:05:17.139Z,1.60
2019-04-11T01:07:45.762Z,1.60
2019-04-11T01:10:14.470Z,1.50
2019-04-11T01:12:43.009Z,1.50
2019-04-11T01:15:13.385Z,1.50
2019-04-11T01:17:41.864Z,1.40
2019-04-11T01:20:11.257Z,1.40
2019-04-11T01:22:40.549Z,1.40
2019-04-11T01:25:10.469Z,1.40
2019-04-11T01:27:39.964Z,1.30
2019-04-11T01:30:13.742Z,1.30
2019-04-11T01:32:42.500Z,1.30
2019-04-11T01:35:11.021Z,1.30
2019-04-11T01:37:39.946Z,1.30
2019-04-11T01:40:09.846Z,1.20
2019-04-11T01:42:39.642Z,1.20
2019-04-11T01:45:09.551Z,1.20
2019-04-11T01:47:42.784Z,1.10
2019-04-11T01:50:12.830Z,1.10
2019-04-11T01:52:42.424Z,1.10
2019-04-11T01:55:12.241Z,1.10
2019-04-11T01:57:40.843Z,1.10
2019-04-11T02:00:12.295Z,1.10
2019-04-11T02:02:42.562Z,1.10
2019-04-11T02:05:12.665Z,1.10
2019-04-11T02:07:41.124Z,1.10
2019-04-11T02:10:10.627Z,1.10
2019-04-11T02:12:39.443Z,1.10
2019-04-11T02:15:08.336Z,1.10
2019-04-11T02:17:37.068Z,1.10
2019-04-11T02:20:07.548Z,1.10
2019-04-11T02:22:46.570Z,1.10
2019-04-11T02:25:17.077Z,1.00
2019-04-11T02:27:46.296Z,1.00
2019-04-11T02:30:17.850Z,1.00
2019-04-11T02:32:47.353Z,1.00
2019-04-11T02:35:15.930Z,1.00
2019-04-11T02:37:47.641Z,1.00
2019-04-11T02:40:17.644Z,1.00
2019-04-11T02:42:47.593Z,0.90
2019-04-11T02:45:28.991Z,0.90
2019-04-11T02:47:48.630Z,0.90
2019-04-11T02:50:19.835Z,0.90
2019-04-11T02:52:48.185Z,0.90
2019-04-11T02:55:19.191Z,0.90
2019-04-11T02:57:48.420Z,0.80
2019-04-11T03:00:20.341Z,0.90
2019-04-11T03:02:52.036Z,0.90
2019-04-11T03:05:20.742Z,0.90
2019-04-11T03:07:49.784Z,0.90
2019-04-11T03:10:18.850Z,0.90
2019-04-11T03:12:48.706Z,0.90
2019-04-11T03:15:33.633Z,0.90
2019-04-11T03:17:49.468Z,0.90
2019-04-11T03:20:26.388Z,0.90
2019-04-11T03:22:56.488Z,0.90
2019-04-11T03:25:19.962Z,0.90
2019-04-11T03:27:49.555Z,1.00
2019-04-11T03:30:24.772Z,1.00
2019-04-11T03:33:46.872Z,1.00
2019-04-11T03:36:07.595Z,1.00
2019-04-11T03:38:13.871Z,1.00
2019-04-11T03:40:36.818Z,1.00
2019-04-11T03:43:06.218Z,1.00
2019-04-11T03:45:43.825Z,1.00
2019-04-11T03:48:06.187Z,1.00
2019-04-11T03:50:26.063Z,1.00
2019-04-11T03:52:54.030Z,1.00
2019-04-11T03:55:25.709Z,1.00
2019-04-11T03:57:56.249Z,1.00
2019-04-11T04:00:30.399Z,1.00
2019-04-11T04:02:57.597Z,0.90
2019-04-11T04:05:28.365Z,1.00
2019-04-11T04:07:58.159Z,0.90
2019-04-11T04:10:29.531Z,0.90
2019-04-11T04:13:00.211Z,0.90
2019-04-11T04:15:59.989Z,0.90
2019-04-11T04:18:29.740Z,0.90
2019-04-11T04:21:07.009Z,0.90
2019-04-11T04:23:40.894Z,0.80
2019-04-11T04:26:12.052Z,0.80
2019-04-11T04:28:40.950Z,0.80
2019-04-11T04:31:11.490Z,0.80
2019-04-11T04:33:40.379Z,0.80
2019-04-11T04:36:10.876Z,0.90
2019-04-11T04:38:41.422Z,0.80
2019-04-11T04:41:22.417Z,0.90
2019-04-11T04:43:44.754Z,0.90
2019-04-11T04:46:31.367Z,0.90
2019-04-11T04:48:45.524Z,0.90
2019-04-11T04:51:16.170Z,0.90
2019-04-11T04:53:45.175Z,0.90
2019-04-11T04:56:16.701Z,0.90
2019-04-11T04:58:44.520Z,0.90
2019-04-11T05:01:15.120Z,0.90
2019-04-11T05:03:44.681Z,0.90
2019-04-11T05:06:14.137Z,0.90
2019-04-11T05:08:43.122Z,0.90
2019-04-11T05:11:11.979Z,0.90
2019-04-11T05:13:40.918Z,0.90
2019-04-11T05:16:17.221Z,0.90
2019-04-11T05:18:41.997Z,0.90
2019-04-11T05:21:10.796Z,1.00
2019-04-11T05:23:39.764Z,1.00
2019-04-11T05:26:08.876Z,1.00
2019-04-11T05:28:57.202Z,1.00
2019-04-11T05:31:26.858Z,1.10
2019-04-11T05:33:56.089Z,1.20
2019-04-11T05:36:25.162Z,1.30
2019-04-11T05:38:54.667Z,1.40
2019-04-11T05:41:24.573Z,1.50
2019-04-11T05:43:53.693Z,1.50
2019-04-11T05:46:31.058Z,1.60
2019-04-11T05:49:00.551Z,1.60
2019-04-11T05:51:38.895Z,1.60
2019-04-11T05:53:58.291Z,1.70
2019-04-11T05:56:28.424Z,1.70
2019-04-11T05:59:18.868Z,1.80
2019-04-11T06:02:05.268Z,1.80
2019-04-11T06:04:32.149Z,1.90
2019-04-11T06:07:03.289Z,1.90
2019-04-11T06:09:36.049Z,1.90
2019-04-11T06:12:19.441Z,2.00
2019-04-11T06:14:49.593Z,2.10
2019-04-11T06:17:19.405Z,2.20
2019-04-11T06:20:08.312Z,2.30
2019-04-11T06:22:38.413Z,2.40
2019-04-11T06:25:25.779Z,2.50
2019-04-11T06:27:57.828Z,2.60
2019-04-11T06:30:44.382Z,2.70
2019-04-11T06:33:20.688Z,2.80
2019-04-11T06:35:54.562Z,2.90
2019-04-11T06:38:27.695Z,3.00
2019-04-11T06:41:03.655Z,3.10
2019-04-11T06:43:36.400Z,3.20
2019-04-11T06:46:09.157Z,3.30
2019-04-11T06:48:40.021Z,3.40
2019-04-11T06:51:11.513Z,3.50
2019-04-11T06:53:42.126Z,3.60
2019-04-11T06:56:18.940Z,3.70
2019-04-11T06:58:53.632Z,3.80
2019-04-11T07:01:24.097Z,3.90
2019-04-11T07:03:55.058Z,4.00
2019-04-11T07:06:25.362Z,4.10
2019-04-11T07:09:14.601Z,4.10
2019-04-11T07:11:48.493Z,4.20
2019-04-11T07:14:35.423Z,4.30
2019-04-11T07:17:23.045Z,4.40
2019-04-11T07:20:10.952Z,4.50
2019-04-11T07:22:57.815Z,4.60
2019-04-11T07:25:31.079Z,4.70
2019-04-11T07:28:07.837Z,4.80
2019-04-11T07:31:14.688Z,4.90
2019-04-11T07:33:47.823Z,5.00
2019-04-11T07:36:34.172Z,5.10
2019-04-11T07:39:05.480Z,5.10
2019-04-11T07:41:39.237Z,5.20
2019-04-11T07:44:17.343Z,5.20
2019-04-11T07:46:51.499Z,5.30
2019-04-11T07:49:24.693Z,5.30
2019-04-11T07:51:54.933Z,5.20
2019-04-11T07:54:23.533Z,5.30
2019-04-11T07:56:56.180Z,5.30
2019-04-11T07:59:27.159Z,5.40
2019-04-11T08:02:12.428Z,5.50
2019-04-11T08:04:58.941Z,5.70
2019-04-11T08:07:30.401Z,6.00
2019-04-11T08:10:00.889Z,6.20
2019-04-11T08:12:31.740Z,6.50
2019-04-11T08:15:05.205Z,6.70
2019-04-11T08:17:38.982Z,6.80
2019-04-11T08:20:25.766Z,6.90
2019-04-11T08:22:56.960Z,6.90
2019-04-11T08:25:33.570Z,6.90
2019-04-11T08:28:09.246Z,7.10
2019-04-11T08:30:55.206Z,7.10
2019-04-11T08:33:26.647Z,7.20
2019-04-11T08:35:59.786Z,7.20
2019-04-11T08:38:30.159Z,7.20
2019-04-11T08:41:31.781Z,7.20
2019-04-11T08:44:01.576Z,7.10
2019-04-11T08:46:32.944Z,7.10
2019-04-11T08:49:03.642Z,7.00
2019-04-11T08:51:33.762Z,7.00
2019-04-11T08:54:19.961Z,7.00
2019-04-11T08:56:49.433Z,7.10
2019-04-11T08:59:36.157Z,7.40
2019-04-11T09:02:06.817Z,7.70
2019-04-11T09:04:42.719Z,8.00
2019-04-11T09:07:13.500Z,8.30
2019-04-11T09:09:53.672Z,8.50
2019-04-11T09:12:22.823Z,8.60
2019-04-11T09:15:09.208Z,8.60
2019-04-11T09:17:39.314Z,8.60
2019-04-11T09:20:15.689Z,8.30
2019-04-11T09:22:47.023Z,8.20
2019-04-11T09:25:17.415Z,8.20
2019-04-11T09:27:54.487Z,8.20
2019-04-11T09:30:41.210Z,8.20
2019-04-11T09:33:27.017Z,8.40
2019-04-11T09:35:57.615Z,8.70
2019-04-11T09:38:28.523Z,9.00
2019-04-11T09:40:59.004Z,9.10
2019-04-11T09:43:29.097Z,9.20
2019-04-11T09:46:06.009Z,9.30
2019-04-11T09:48:36.428Z,9.20
2019-04-11T09:51:28.658Z,9.20
2019-04-11T09:53:57.598Z,9.40
2019-04-11T09:56:45.055Z,9.50
2019-04-11T09:59:16.400Z,9.70
2019-04-11T10:01:54.035Z,9.50
2019-04-11T10:04:25.543Z,9.40
2019-04-11T10:07:11.145Z,9.20
2019-04-11T10:09:57.796Z,9.00
2019-04-11T10:12:40.471Z,8.90
2019-04-11T10:15:11.530Z,8.80
2019-04-11T10:17:42.505Z,8.80
2019-04-11T10:20:16.213Z,8.80
2019-04-11T10:23:03.307Z,8.80
2019-04-11T10:25:35.184Z,8.90
2019-04-11T10:28:21.841Z,9.10
2019-04-11T10:31:04.283Z,9.20
2019-04-11T10:33:37.517Z,9.40
2019-04-11T10:36:25.184Z,9.50
2019-04-11T10:38:55.625Z,9.70
2019-04-11T10:41:25.766Z,9.90
2019-04-11T10:43:54.293Z,10.00
2019-04-11T10:46:41.689Z,10.20
2019-04-11T10:49:18.202Z,10.30
2019-04-11T10:51:51.285Z,10.40
2019-04-11T10:54:19.793Z,10.40
2019-04-11T10:57:03.448Z,10.40
2019-04-11T10:59:34.468Z,10.30
2019-04-11T11:02:13.531Z,10.30
2019-04-11T11:04:45.022Z,10.40
2019-04-11T11:07:16.174Z,10.30
2019-04-11T11:09:46.517Z,10.30
2019-04-11T11:12:35.170Z,10.40
2019-04-11T11:15:13.583Z,10.30
2019-04-11T11:18:20.621Z,10.20
2019-04-11T11:20:48.299Z,10.20
2019-04-11T11:23:18.336Z,10.20
2019-04-11T11:25:52.877Z,10.10
2019-04-11T11:28:25.942Z,9.80
2019-04-11T11:31:14.265Z,9.80
2019-04-11T11:33:44.849Z,9.70
2019-04-11T11:36:21.452Z,9.60
2019-04-11T11:39:08.819Z,9.70
2019-04-11T11:41:55.212Z,9.60
2019-04-11T11:44:25.595Z,9.60
2019-04-11T11:47:12.037Z,9.50
2019-04-11T11:49:48.788Z,9.50
2019-04-11T11:52:31.897Z,9.80
2019-04-11T11:54:59.787Z,10.00
2019-04-11T11:57:30.857Z,10.40
2019-04-11T12:00:05.012Z,10.50
2019-04-11T12:02:35.392Z,10.70
2019-04-11T12:05:16.778Z,10.90
2019-04-11T12:07:47.784Z,10.60
2019-04-11T12:10:17.949Z,10.50
2019-04-11T12:13:08.014Z,10.50
2019-04-11T12:15:49.012Z,10.30
2019-04-11T12:18:40.299Z,10.10
2019-04-11T12:21:23.666Z,10.20
2019-04-11T12:24:02.582Z,11.50
2019-04-11T12:26:30.449Z,12.90
2019-04-11T12:29:12.295Z,13.50
2019-04-11T12:31:42.512Z,13.60
2019-04-11T12:34:28.863Z,13.10
2019-04-11T12:36:58.613Z,12.90
2019-04-11T12:39:31.581Z,12.80
2019-04-11T12:42:17.838Z,13.30
2019-04-11T12:45:06.455Z,13.40
2019-04-11T12:47:38.499Z,13.20
2019-04-11T12:50:21.887Z,12.90
2019-04-11T12:52:58.005Z,12.80
2019-04-11T12:55:28.133Z,13.30
2019-04-11T12:57:58.230Z,13.90
2019-04-11T13:00:36.982Z,14.10
2019-04-11T13:03:23.166Z,13.90
2019-04-11T13:05:56.340Z,13.50
2019-04-11T13:08:32.232Z,13.00
2019-04-11T13:11:00.880Z,12.70
2019-04-11T13:13:33.560Z,12.90
2019-04-11T13:16:11.995Z,13.60
2019-04-11T13:18:44.330Z,14.20
2019-04-11T13:21:23.267Z,14.90
2019-04-11T13:23:56.191Z,15.70
2019-04-11T13:26:42.434Z,16.50
2019-04-11T13:29:28.993Z,16.50
2019-04-11T13:32:07.890Z,15.80
2019-04-11T13:34:37.993Z,14.90
2019-04-11T13:37:17.067Z,13.90
2019-04-11T13:39:47.242Z,13.20
2019-04-11T13:42:33.955Z,12.50
2019-04-11T13:45:02.484Z,12.40
2019-04-11T13:47:32.586Z,13.00
2019-04-11T13:50:03.950Z,13.30
2019-04-11T13:52:39.628Z,13.40
2019-04-11T13:55:14.554Z,13.20
2019-04-11T13:57:44.659Z,13.00
2019-04-11T14:00:32.305Z,13.00
2019-04-11T14:03:14.558Z,12.90
2019-04-11T14:05:44.705Z,12.70
2019-04-11T14:08:23.309Z,12.40
2019-04-11T14:11:09.646Z,11.90
2019-04-11T14:13:39.801Z,11.60
2019-04-11T14:16:12.631Z,11.70
2019-04-11T14:19:00.927Z,12.20
2019-04-11T14:21:31.089Z,12.50
2019-04-11T14:24:13.264Z,12.80
2019-04-11T14:26:45.923Z,12.70
2019-04-11T14:29:19.100Z,12.30
2019-04-11T14:31:58.149Z,12.10
2019-04-11T14:34:44.392Z,12.20
2019-04-11T14:37:23.158Z,12.20
2019-04-11T14:39:53.286Z,11.90
2019-04-11T14:42:35.385Z,11.70
2019-04-11T14:45:07.698Z,11.50
2019-04-11T14:47:39.213Z,11.20
2019-04-11T14:50:12.705Z,11.00
2019-04-11T14:52:48.617Z,10.80
2019-04-11T14:55:19.540Z,10.50
2019-04-11T14:57:53.597Z,10.30
2019-04-11T15:00:25.308Z,10.20
2019-04-11T15:02:55.465Z,10.20
2019-04-11T15:05:34.225Z,10.20
2019-04-11T15:08:02.673Z,10.20
2019-04-11T15:10:38.436Z,10.20
2019-04-11T15:13:08.761Z,10.30
2019-04-11T15:15:44.681Z,10.50
2019-04-11T15:18:14.227Z,10.50
2019-04-11T15:20:55.364Z,10.40
2019-04-11T15:23:22.141Z,10.20
2019-04-11T15:26:13.308Z,10.20
2019-04-11T15:28:49.152Z,10.40
2019-04-11T15:31:22.818Z,10.70
2019-04-11T15:33:53.028Z,10.80
2019-04-11T15:36:27.873Z,11.10
2019-04-11T15:39:13.782Z,11.20
2019-04-11T15:41:46.854Z,11.20
2019-04-11T15:44:25.778Z,11.20
2019-04-11T15:46:55.896Z,11.10
2019-04-11T15:49:31.125Z,11.00
2019-04-11T15:52:00.879Z,10.70
2019-04-11T15:54:47.268Z,10.20
2019-04-11T15:57:17.497Z,9.70
2019-04-11T16:00:03.601Z,9.40
2019-04-11T16:02:36.378Z,9.10
2019-04-11T16:05:08.217Z,8.70
2019-04-11T16:07:56.078Z,8.40
2019-04-11T16:10:26.192Z,8.30
2019-04-11T16:12:56.350Z,8.20
2019-04-11T16:15:30.364Z,8.20
2019-04-11T16:18:16.095Z,8.30
2019-04-11T16:20:50.869Z,8.30
2019-04-11T16:23:34.942Z,8.20
2019-04-11T16:26:05.511Z,8.20
2019-04-11T16:28:51.876Z,8.20
2019-04-11T16:31:21.067Z,8.10
2019-04-11T16:36:54.984Z,7.80
2019-04-11T16:39:41.745Z,7.70
2019-04-11T16:42:10.384Z,7.60
2019-04-11T16:44:54.831Z,7.50
2019-04-11T16:47:29.738Z,7.40
2019-04-11T16:49:58.212Z,7.30
2019-04-11T16:52:26.682Z,7.30
2019-04-11T16:54:55.129Z,7.20
2019-04-11T16:57:23.629Z,7.10
2019-04-11T16:59:52.156Z,7.10
2019-04-11T17:02:21.822Z,7.00
2019-04-11T17:04:50.832Z,7.00
2019-04-11T17:07:35.676Z,6.90
2019-04-11T17:10:07.967Z,6.80
2019-04-11T17:12:36.809Z,6.70
2019-04-11T17:15:07.078Z,6.70
2019-04-11T17:17:35.571Z,6.60
2019-04-11T17:20:06.690Z,6.60
2019-04-11T17:22:35.593Z,6.50
2019-04-11T17:25:06.620Z,6.40
2019-04-11T17:27:35.159Z,6.40
2019-04-11T17:30:05.652Z,6.30
2019-04-11T17:32:34.183Z,6.30
2019-04-11T17:35:02.634Z,6.20
2019-04-11T17:37:33.224Z,6.20
2019-04-11T17:40:01.394Z,6.10
2019-04-11T17:42:29.841Z,6.00
2019-04-11T17:44:58.350Z,6.00
2019-04-11T17:47:27.517Z,6.00
2019-04-11T17:49:56.049Z,5.90
2019-04-11T17:52:24.551Z,5.90
2019-04-11T17:54:54.221Z,5.90
2019-04-11T17:57:26.619Z,5.90
2019-04-11T17:59:53.494Z,5.80
2019-04-11T18:02:21.945Z,5.80
2019-04-11T18:04:50.415Z,5.70
2019-04-11T18:07:18.938Z,5.70
2019-04-11T18:09:47.428Z,5.70
2019-04-11T18:12:15.967Z,5.60
2019-04-11T18:14:44.427Z,5.60
2019-04-11T18:17:12.918Z,5.60
2019-04-11T18:19:41.375Z,5.60
2019-04-11T18:22:13.325Z,5.60
2019-04-11T18:24:40.440Z,5.60
2019-04-11T18:27:08.912Z,5.50
2019-04-11T18:29:37.439Z,5.50
2019-04-11T18:32:05.979Z,5.40
2019-04-11T18:34:34.431Z,5.30
2019-04-11T18:37:02.989Z,5.30
2019-04-11T18:39:33.566Z,5.30
2019-04-11T18:42:01.628Z,5.20
2019-04-11T18:44:30.156Z,5.20
2019-04-11T18:46:58.739Z,5.10
2019-04-11T18:49:27.281Z,5.10
2019-04-11T18:51:55.874Z,5.00
2019-04-11T18:54:24.329Z,5.00
2019-04-11T18:56:52.819Z,5.00
2019-04-11T18:59:21.344Z,4.90
2019-04-11T19:01:49.941Z,4.90
2019-04-11T19:04:18.403Z,4.90
2019-04-11T19:06:47.824Z,4.80
2019-04-11T19:09:16.948Z,4.80
2019-04-11T19:11:46.376Z,4.70
2019-04-11T19:14:16.067Z,4.70
2019-04-11T19:16:46.879Z,4.60
2019-04-11T19:19:17.890Z,4.60
2019-04-11T19:21:45.765Z,4.50
2019-04-11T19:24:14.215Z,4.50
2019-04-11T19:26:46.049Z,4.40
2019-04-11T19:29:13.133Z,4.40
2019-04-11T19:31:41.662Z,4.40
2019-04-11T19:34:10.183Z,4.30
2019-04-11T19:36:39.805Z,4.30
2019-04-11T19:39:13.488Z,4.30
2019-04-11T19:41:39.107Z,4.30
2019-04-11T19:44:07.596Z,4.20
2019-04-11T19:46:36.158Z,4.20
2019-04-11T19:49:04.624Z,4.20
2019-04-11T19:51:33.086Z,4.20
2019-04-11T19:54:03.282Z,4.20
2019-04-11T19:56:33.399Z,4.10
2019-04-11T19:59:01.931Z,4.10
2019-04-11T20:01:31.441Z,4.10
2019-04-11T20:03:59.965Z,4.10
2019-04-11T20:06:28.414Z,4.10
2019-04-11T20:08:56.931Z,4.10
2019-04-11T20:11:25.413Z,4.00
2019-04-11T20:13:53.937Z,4.10
2019-04-11T20:16:22.398Z,4.00
2019-04-11T20:18:51.717Z,4.00
2019-04-11T20:21:21.134Z,4.00
2019-04-11T20:23:49.715Z,4.00
2019-04-11T20:26:20.855Z,4.00
2019-04-11T20:28:50.898Z,4.00
2019-04-11T20:31:18.645Z,4.00
2019-04-11T20:33:47.188Z,4.10
2019-04-11T20:36:15.774Z,4.00
2019-04-11T20:38:45.393Z,4.00
2019-04-11T20:41:13.980Z,4.00
2019-04-11T20:43:43.277Z,4.00
2019-04-11T20:46:11.878Z,4.00
2019-04-11T20:48:40.347Z,3.90
2019-04-11T20:51:08.982Z,3.90
2019-04-11T20:53:37.660Z,3.80
2019-04-11T20:56:09.566Z,3.80
2019-04-11T20:58:39.662Z,3.80
2019-04-11T21:01:07.185Z,3.70
2019-04-11T21:03:35.660Z,3.70
2019-04-11T21:06:04.253Z,3.70
2019-04-11T21:08:33.640Z,3.60
2019-04-11T21:11:04.554Z,3.60
2019-04-11T21:13:32.729Z,3.50
2019-04-11T21:16:01.346Z,3.50
2019-04-11T21:18:29.804Z,3.50
2019-04-11T21:20:58.259Z,3.50
2019-04-11T21:23:29.471Z,3.40
2019-04-11T21:25:58.827Z,3.40
2019-04-11T21:28:27.840Z,3.40
2019-04-11T21:30:59.884Z,3.30
2019-04-11T21:33:27.528Z,3.30
2019-04-11T21:35:56.025Z,3.30
2019-04-11T21:38:24.558Z,3.30
2019-04-11T21:40:53.018Z,3.20
2019-04-11T21:43:21.564Z,3.20
2019-04-11T21:45:50.100Z,3.20
2019-04-11T21:48:18.647Z,3.10
2019-04-11T21:50:47.089Z,3.10
2019-04-11T21:53:16.098Z,3.10
2019-04-11T21:55:47.183Z,3.10
2019-04-11T21:58:19.439Z,3.10
2019-04-11T22:00:51.709Z,3.00
2019-04-11T22:03:23.982Z,3.00
2019-04-11T22:05:50.598Z,3.00
2019-04-11T22:08:19.124Z,2.90
2019-04-11T22:10:47.690Z,2.90
2019-04-11T22:13:16.144Z,2.90
2019-04-11T22:15:44.609Z,2.90
2019-04-11T22:18:16.121Z,2.90
2019-04-11T22:20:45.291Z,2.90
2019-04-11T22:23:13.541Z,2.90
2019-04-11T22:25:41.995Z,2.90
2019-04-11T22:28:10.445Z,2.80
2019-04-11T22:30:38.904Z,2.80
2019-04-11T22:33:09.231Z,2.80
2019-04-11T22:35:37.736Z,2.80
2019-04-11T22:38:06.259Z,2.70
2019-04-11T22:40:34.717Z,2.70
2019-04-11T22:43:07.317Z,2.70
2019-04-11T22:45:33.448Z,2.60
2019-04-11T22:48:01.909Z,2.70
2019-04-11T22:50:30.433Z,2.60
2019-04-11T22:52:58.931Z,2.60
2019-04-11T22:55:27.446Z,2.60
2019-04-11T22:57:55.892Z,2.60
2019-04-11T23:00:24.465Z,2.60
2019-04-11T23:02:57.373Z,2.60
2019-04-11T23:05:25.893Z,2.60
2019-04-11T23:07:54.356Z,2.50
2019-04-11T23:10:22.805Z,2.50
2019-04-11T23:12:51.290Z,2.50
2019-04-11T23:15:19.741Z,2.50
2019-04-11T23:17:48.267Z,2.40
2019-04-11T23:20:16.772Z,2.50
2019-04-11T23:22:45.292Z,2.40
2019-04-11T23:25:13.745Z,2.40
2019-04-11T23:27:42.238Z,2.40
2019-04-11T23:30:12.637Z,2.40
2019-04-11T23:32:41.103Z,2.40
2019-04-11T23:35:09.715Z,2.40
2019-04-11T23:37:51.091Z,2.30
2019-04-11T23:40:21.867Z,2.30
2019-04-11T23:42:50.934Z,2.30
2019-04-11T23:45:21.401Z,2.30
2019-04-11T23:47:53.098Z,2.20
2019-04-11T23:50:20.297Z,2.20
2019-04-11T23:52:48.746Z,2.20
2019-04-11T23:55:17.231Z,2.20
2019-04-11T23:57:45.698Z,2.10
